LOT1226 EKCH-EPGD
Flight info
| Callsign | LOT1226 |
|---|---|
| Flight time | 0h 37m |
| Altitude | 31000 |
| Route | SIMEG Z491 TELMO DCT ASBAX DCT RUMAR L983 DOMAG T240 OGDAV |
| Aircraft | B738/M-SDE2E3FGHIRWXY/LB1 |
Departure
| Time | 2026-05-05 10:37 |
|---|---|
| Airport | Copenhagen Kastrup Airport (EKCH) |
Arrival
| Time | 2026-05-05 11:15 |
|---|---|
| Airport | Gdańsk Lech Wałęsa Airport (EPGD) |
| Time | Latitude | Longitude | Altitude | Speed | Heading |
|---|---|---|---|---|---|
| 2026-05-05 10:14 | 55.62554 | 12.64885 | 16 ft | 0 kts | 89° |
| 2026-05-05 10:23 | 55.62553 | 12.64855 | 16 ft | 4 kts | 89° |
| 2026-05-05 10:23 | 55.62553 | 12.64817 | 16 ft | 4 kts | 98° |
| 2026-05-05 10:24 | 55.62563 | 12.64779 | 20 ft | 4 kts | 152° |
| 2026-05-05 10:24 | 55.62575 | 12.64771 | 16 ft | 3 kts | 179° |
| 2026-05-05 10:24 | 55.62548 | 12.64772 | 17 ft | 4 kts | 179° |
| 2026-05-05 10:24 | 55.62527 | 12.64773 | 16 ft | 4 kts | 179° |
| 2026-05-05 10:25 | 55.62502 | 12.64774 | 16 ft | 1 kts | 179° |
| 2026-05-05 10:25 | 55.62501 | 12.64774 | 16 ft | 0 kts | 179° |
| 2026-05-05 10:29 | 55.62500 | 12.64774 | 16 ft | 1 kts | 179° |
| 2026-05-05 10:29 | 55.62481 | 12.64775 | 18 ft | 4 kts | 178° |
| 2026-05-05 10:29 | 55.62450 | 12.64777 | 16 ft | 5 kts | 177° |
| 2026-05-05 10:30 | 55.62429 | 12.64779 | 16 ft | 5 kts | 176° |
| 2026-05-05 10:30 | 55.62397 | 12.64782 | 16 ft | 4 kts | 177° |
| 2026-05-05 10:30 | 55.62366 | 12.64784 | 16 ft | 4 kts | 178° |
| 2026-05-05 10:30 | 55.62332 | 12.64786 | 16 ft | 5 kts | 178° |
| 2026-05-05 10:31 | 55.62289 | 12.64789 | 17 ft | 7 kts | 176° |
| 2026-05-05 10:31 | 55.62239 | 12.64789 | 16 ft | 7 kts | 183° |
| 2026-05-05 10:31 | 55.62193 | 12.64748 | 17 ft | 7 kts | 211° |
| 2026-05-05 10:31 | 55.62149 | 12.64703 | 18 ft | 8 kts | 212° |
| 2026-05-05 10:32 | 55.62078 | 12.64624 | 16 ft | 16 kts | 212° |
| 2026-05-05 10:32 | 55.61978 | 12.64522 | 16 ft | 16 kts | 192° |
| 2026-05-05 10:32 | 55.61867 | 12.64514 | 16 ft | 16 kts | 177° |
| 2026-05-05 10:32 | 55.61762 | 12.64550 | 18 ft | 15 kts | 166° |
| 2026-05-05 10:33 | 55.61661 | 12.64547 | 16 ft | 14 kts | 199° |
| 2026-05-05 10:33 | 55.61577 | 12.64457 | 16 ft | 14 kts | 214° |
| 2026-05-05 10:33 | 55.61498 | 12.64366 | 16 ft | 13 kts | 213° |
| 2026-05-05 10:33 | 55.61423 | 12.64280 | 16 ft | 13 kts | 213° |
| 2026-05-05 10:34 | 55.61349 | 12.64195 | 18 ft | 12 kts | 213° |
| 2026-05-05 10:34 | 55.61279 | 12.64113 | 16 ft | 12 kts | 213° |
| 2026-05-05 10:34 | 55.61209 | 12.64033 | 16 ft | 12 kts | 213° |
| 2026-05-05 10:34 | 55.61140 | 12.63955 | 16 ft | 12 kts | 213° |
| 2026-05-05 10:35 | 55.61074 | 12.63879 | 18 ft | 11 kts | 213° |
| 2026-05-05 10:35 | 55.61008 | 12.63803 | 17 ft | 12 kts | 213° |
| 2026-05-05 10:35 | 55.60935 | 12.63718 | 16 ft | 13 kts | 213° |
| 2026-05-05 10:35 | 55.60862 | 12.63633 | 16 ft | 12 kts | 213° |
| 2026-05-05 10:36 | 55.60782 | 12.63611 | 16 ft | 12 kts | 158° |
| 2026-05-05 10:36 | 55.60724 | 12.63714 | 16 ft | 12 kts | 129° |
| 2026-05-05 10:36 | 55.60687 | 12.63837 | 19 ft | 11 kts | 94° |
| 2026-05-05 10:36 | 55.60726 | 12.63947 | 18 ft | 9 kts | 41° |
| 2026-05-05 10:37 | 55.60745 | 12.63975 | 18 ft | 23 kts | 40° |
| 2026-05-05 10:37 | 55.61105 | 12.64530 | 16 ft | 112 kts | 41° |
| 2026-05-05 10:37 | 55.61880 | 12.65731 | 145 ft | 175 kts | 42° |
| 2026-05-05 10:37 | 55.62805 | 12.67271 | 1046 ft | 196 kts | 39° |
| 2026-05-05 10:38 | 55.63865 | 12.68889 | 1857 ft | 212 kts | 38° |
| 2026-05-05 10:38 | 55.65037 | 12.70646 | 2323 ft | 226 kts | 38° |
| 2026-05-05 10:38 | 55.66196 | 12.72371 | 3212 ft | 212 kts | 38° |
| 2026-05-05 10:38 | 55.67347 | 12.74082 | 3592 ft | 225 kts | 37° |
| 2026-05-05 10:39 | 55.68598 | 12.75940 | 3820 ft | 244 kts | 37° |
| 2026-05-05 10:39 | 55.69946 | 12.78000 | 4084 ft | 266 kts | 44° |
| 2026-05-05 10:39 | 55.70851 | 12.80895 | 4713 ft | 277 kts | 77° |
| 2026-05-05 10:39 | 55.70834 | 12.84325 | 5406 ft | 283 kts | 106° |
| 2026-05-05 10:40 | 55.69923 | 12.87384 | 6121 ft | 283 kts | 133° |
| 2026-05-05 10:40 | 55.68498 | 12.89755 | 6863 ft | 282 kts | 144° |
| 2026-05-05 10:40 | 55.66946 | 12.91935 | 7552 ft | 286 kts | 146° |
| 2026-05-05 10:40 | 55.65357 | 12.94101 | 8247 ft | 290 kts | 146° |
| 2026-05-05 10:41 | 55.63754 | 12.96286 | 8954 ft | 293 kts | 147° |
| 2026-05-05 10:41 | 55.62133 | 12.98513 | 9681 ft | 296 kts | 147° |
| 2026-05-05 10:41 | 55.60501 | 13.00769 | 10266 ft | 303 kts | 147° |
| 2026-05-05 10:41 | 55.58777 | 13.03154 | 10441 ft | 325 kts | 147° |
| 2026-05-05 10:42 | 55.55010 | 13.08394 | 10917 ft | 360 kts | 146° |
| 2026-05-05 10:42 | 55.53060 | 13.11125 | 11472 ft | 365 kts | 146° |
| 2026-05-05 10:42 | 55.51041 | 13.13958 | 12156 ft | 368 kts | 146° |
| 2026-05-05 10:43 | 55.49028 | 13.16779 | 12839 ft | 371 kts | 146° |
| 2026-05-05 10:43 | 55.46995 | 13.19622 | 13523 ft | 375 kts | 146° |
| 2026-05-05 10:43 | 55.44971 | 13.22446 | 14135 ft | 379 kts | 146° |
| 2026-05-05 10:43 | 55.42897 | 13.25334 | 14799 ft | 381 kts | 146° |
| 2026-05-05 10:44 | 55.40813 | 13.28234 | 15481 ft | 383 kts | 146° |
| 2026-05-05 10:44 | 55.38712 | 13.31152 | 16138 ft | 386 kts | 146° |
| 2026-05-05 10:44 | 55.36594 | 13.34087 | 16781 ft | 389 kts | 147° |
| 2026-05-05 10:44 | 55.34460 | 13.37044 | 17419 ft | 393 kts | 147° |
| 2026-05-05 10:45 | 55.32304 | 13.40027 | 17997 ft | 397 kts | 146° |
| 2026-05-05 10:45 | 55.30120 | 13.43043 | 18528 ft | 401 kts | 147° |
| 2026-05-05 10:45 | 55.27919 | 13.46076 | 19087 ft | 403 kts | 147° |
| 2026-05-05 10:45 | 55.25787 | 13.49321 | 19645 ft | 410 kts | 138° |
| 2026-05-05 10:46 | 55.23966 | 13.53217 | 20190 ft | 418 kts | 128° |
| 2026-05-05 10:46 | 55.22482 | 13.57662 | 20721 ft | 424 kts | 123° |
| 2026-05-05 10:46 | 55.21080 | 13.62219 | 21225 ft | 428 kts | 122° |
| 2026-05-05 10:46 | 55.19672 | 13.66832 | 21718 ft | 431 kts | 122° |
| 2026-05-05 10:47 | 55.18248 | 13.71458 | 22211 ft | 433 kts | 123° |
| 2026-05-05 10:47 | 55.16800 | 13.76105 | 22721 ft | 436 kts | 123° |
| 2026-05-05 10:47 | 55.15338 | 13.80750 | 23195 ft | 439 kts | 123° |
| 2026-05-05 10:47 | 55.13852 | 13.85438 | 23624 ft | 442 kts | 123° |
| 2026-05-05 10:48 | 55.12372 | 13.90090 | 23963 ft | 445 kts | 123° |
| 2026-05-05 10:48 | 55.10842 | 13.94894 | 24361 ft | 448 kts | 123° |
| 2026-05-05 10:48 | 55.09346 | 13.99585 | 24763 ft | 450 kts | 124° |
| 2026-05-05 10:48 | 55.07819 | 14.04366 | 25151 ft | 452 kts | 123° |
| 2026-05-05 10:49 | 55.06503 | 14.09376 | 25494 ft | 461 kts | 113° |
| 2026-05-05 10:49 | 55.05668 | 14.14826 | 25869 ft | 468 kts | 103° |
| 2026-05-05 10:49 | 55.05333 | 14.20497 | 26234 ft | 474 kts | 94° |
| 2026-05-05 10:49 | 55.05322 | 14.26259 | 26577 ft | 477 kts | 92° |
| 2026-05-05 10:50 | 55.05355 | 14.32068 | 26906 ft | 480 kts | 92° |
| 2026-05-05 10:50 | 55.05389 | 14.37895 | 27204 ft | 482 kts | 92° |
| 2026-05-05 10:50 | 55.05407 | 14.43760 | 27511 ft | 485 kts | 92° |
| 2026-05-05 10:50 | 55.05406 | 14.49658 | 27834 ft | 487 kts | 93° |
| 2026-05-05 10:51 | 55.05391 | 14.55574 | 28164 ft | 489 kts | 93° |
| 2026-05-05 10:51 | 55.05366 | 14.61504 | 28488 ft | 491 kts | 93° |
| 2026-05-05 10:51 | 55.05335 | 14.67467 | 28813 ft | 492 kts | 94° |
| 2026-05-05 10:51 | 55.05301 | 14.73438 | 29216 ft | 492 kts | 94° |
| 2026-05-05 10:52 | 55.05266 | 14.79372 | 29693 ft | 490 kts | 94° |
| 2026-05-05 10:52 | 55.05228 | 14.85308 | 30153 ft | 487 kts | 94° |
| 2026-05-05 10:52 | 55.05189 | 14.91202 | 30525 ft | 486 kts | 94° |
| 2026-05-05 10:52 | 55.05146 | 14.97107 | 30800 ft | 487 kts | 94° |
| 2026-05-05 10:53 | 55.05100 | 15.03038 | 30946 ft | 491 kts | 94° |
| 2026-05-05 10:53 | 55.05000 | 15.14998 | 30943 ft | 492 kts | 94° |
| 2026-05-05 10:54 | 55.04850 | 15.26843 | 30936 ft | 486 kts | 95° |
| 2026-05-05 10:54 | 55.04660 | 15.38620 | 30948 ft | 486 kts | 95° |
| 2026-05-05 10:55 | 55.04464 | 15.50404 | 30918 ft | 487 kts | 95° |
| 2026-05-05 10:55 | 55.04368 | 15.56241 | 30915 ft | 472 kts | 96° |
| 2026-05-05 10:55 | 55.04276 | 15.61874 | 30921 ft | 457 kts | 96° |
| 2026-05-05 10:55 | 55.04183 | 15.67334 | 30916 ft | 443 kts | 96° |
| 2026-05-05 10:56 | 55.04089 | 15.72630 | 30922 ft | 430 kts | 96° |
| 2026-05-05 10:56 | 55.03995 | 15.77686 | 30915 ft | 417 kts | 96° |
| 2026-05-05 10:56 | 55.03901 | 15.82662 | 30920 ft | 404 kts | 97° |
| 2026-05-05 10:56 | 55.03806 | 15.87498 | 30793 ft | 396 kts | 97° |
| 2026-05-05 10:57 | 55.03707 | 15.92296 | 30436 ft | 395 kts | 97° |
| 2026-05-05 10:57 | 55.03609 | 15.97083 | 30065 ft | 395 kts | 97° |
| 2026-05-05 10:57 | 55.03510 | 16.01857 | 29690 ft | 393 kts | 97° |
| 2026-05-05 10:57 | 55.03412 | 16.06579 | 29333 ft | 390 kts | 97° |
| 2026-05-05 10:58 | 55.03257 | 16.11286 | 28961 ft | 385 kts | 103° |
| 2026-05-05 10:58 | 55.02658 | 16.15779 | 28151 ft | 385 kts | 116° |
| 2026-05-05 10:58 | 55.01569 | 16.20153 | 26818 ft | 403 kts | 122° |
| 2026-05-05 10:58 | 55.00306 | 16.24672 | 25522 ft | 426 kts | 121° |
| 2026-05-05 10:59 | 54.98993 | 16.29347 | 24786 ft | 431 kts | 121° |
| 2026-05-05 10:59 | 54.97688 | 16.34031 | 24387 ft | 427 kts | 121° |
| 2026-05-05 10:59 | 54.96412 | 16.38651 | 24038 ft | 421 kts | 121° |
| 2026-05-05 10:59 | 54.95149 | 16.43235 | 23612 ft | 418 kts | 120° |
| 2026-05-05 11:00 | 54.93895 | 16.47783 | 23078 ft | 417 kts | 121° |
| 2026-05-05 11:00 | 54.92639 | 16.52316 | 22516 ft | 415 kts | 121° |
| 2026-05-05 11:00 | 54.91397 | 16.56813 | 21992 ft | 413 kts | 121° |
| 2026-05-05 11:00 | 54.90155 | 16.61313 | 21552 ft | 409 kts | 121° |
| 2026-05-05 11:01 | 54.88928 | 16.65746 | 21111 ft | 405 kts | 121° |
| 2026-05-05 11:01 | 54.87710 | 16.70136 | 20667 ft | 402 kts | 121° |
| 2026-05-05 11:01 | 54.86498 | 16.74494 | 20221 ft | 399 kts | 121° |
| 2026-05-05 11:01 | 54.85292 | 16.78818 | 19792 ft | 396 kts | 121° |
| 2026-05-05 11:02 | 54.84098 | 16.83093 | 19359 ft | 393 kts | 121° |
| 2026-05-05 11:02 | 54.82905 | 16.87353 | 18942 ft | 390 kts | 121° |
| 2026-05-05 11:02 | 54.81722 | 16.91573 | 18530 ft | 388 kts | 121° |
| 2026-05-05 11:02 | 54.80561 | 16.95703 | 18110 ft | 385 kts | 121° |
| 2026-05-05 11:03 | 54.79390 | 16.99862 | 17636 ft | 383 kts | 121° |
| 2026-05-05 11:03 | 54.78225 | 17.03993 | 17155 ft | 380 kts | 121° |
| 2026-05-05 11:03 | 54.77063 | 17.08104 | 16700 ft | 378 kts | 121° |
| 2026-05-05 11:03 | 54.75913 | 17.12169 | 16275 ft | 375 kts | 121° |
| 2026-05-05 11:04 | 54.74770 | 17.16201 | 15860 ft | 372 kts | 121° |
| 2026-05-05 11:04 | 54.73633 | 17.20205 | 15436 ft | 369 kts | 121° |
| 2026-05-05 11:04 | 54.72506 | 17.24169 | 15052 ft | 366 kts | 120° |
| 2026-05-05 11:04 | 54.71406 | 17.28037 | 14845 ft | 350 kts | 121° |
| 2026-05-05 11:05 | 54.70344 | 17.31771 | 14296 ft | 346 kts | 121° |
| 2026-05-05 11:05 | 54.69263 | 17.35541 | 13301 ft | 354 kts | 120° |
| 2026-05-05 11:05 | 54.68151 | 17.39405 | 12149 ft | 363 kts | 120° |
| 2026-05-05 11:05 | 54.67008 | 17.43377 | 11070 ft | 372 kts | 119° |
| 2026-05-05 11:06 | 54.65879 | 17.47309 | 10698 ft | 357 kts | 118° |
| 2026-05-05 11:06 | 54.64809 | 17.51044 | 10546 ft | 337 kts | 119° |
| 2026-05-05 11:06 | 54.63799 | 17.54565 | 10420 ft | 319 kts | 119° |
| 2026-05-05 11:06 | 54.62838 | 17.57904 | 10295 ft | 302 kts | 119° |
| 2026-05-05 11:07 | 54.61925 | 17.61066 | 10193 ft | 287 kts | 119° |
| 2026-05-05 11:07 | 54.61049 | 17.64093 | 9994 ft | 277 kts | 119° |
| 2026-05-05 11:07 | 54.60174 | 17.67106 | 9219 ft | 288 kts | 119° |
| 2026-05-05 11:07 | 54.59252 | 17.70267 | 8302 ft | 302 kts | 119° |
| 2026-05-05 11:08 | 54.58310 | 17.73498 | 7733 ft | 304 kts | 119° |
| 2026-05-05 11:08 | 54.57383 | 17.76691 | 7404 ft | 295 kts | 119° |
| 2026-05-05 11:08 | 54.56464 | 17.79846 | 6923 ft | 293 kts | 119° |
| 2026-05-05 11:08 | 54.55547 | 17.82988 | 6355 ft | 295 kts | 119° |
| 2026-05-05 11:09 | 54.54619 | 17.86164 | 5721 ft | 298 kts | 119° |
| 2026-05-05 11:09 | 54.53682 | 17.89365 | 4988 ft | 303 kts | 118° |
| 2026-05-05 11:09 | 54.52720 | 17.92646 | 4180 ft | 310 kts | 118° |
| 2026-05-05 11:09 | 54.51742 | 17.95982 | 3377 ft | 315 kts | 118° |
| 2026-05-05 11:10 | 54.50757 | 17.99338 | 2875 ft | 308 kts | 118° |
| 2026-05-05 11:10 | 54.49823 | 18.02520 | 2715 ft | 289 kts | 117° |
| 2026-05-05 11:10 | 54.48942 | 18.05520 | 2549 ft | 274 kts | 118° |
| 2026-05-05 11:10 | 54.48107 | 18.08348 | 2509 ft | 256 kts | 117° |
| 2026-05-05 11:11 | 54.47328 | 18.10984 | 2487 ft | 238 kts | 117° |
| 2026-05-05 11:11 | 54.46610 | 18.13415 | 2500 ft | 218 kts | 117° |
| 2026-05-05 11:11 | 54.45952 | 18.15641 | 2489 ft | 201 kts | 118° |
| 2026-05-05 11:11 | 54.45343 | 18.17700 | 2462 ft | 189 kts | 118° |
| 2026-05-05 11:12 | 54.44750 | 18.19704 | 2503 ft | 190 kts | 119° |
| 2026-05-05 11:12 | 54.44151 | 18.21719 | 2501 ft | 188 kts | 118° |
| 2026-05-05 11:12 | 54.43560 | 18.23707 | 2506 ft | 186 kts | 118° |
| 2026-05-05 11:12 | 54.42975 | 18.25676 | 2493 ft | 183 kts | 118° |
| 2026-05-05 11:13 | 54.42401 | 18.27629 | 2506 ft | 185 kts | 115° |
| 2026-05-05 11:13 | 54.41910 | 18.29693 | 2512 ft | 188 kts | 114° |
| 2026-05-05 11:13 | 54.41409 | 18.31751 | 2458 ft | 184 kts | 113° |
| 2026-05-05 11:13 | 54.40925 | 18.33739 | 2287 ft | 184 kts | 113° |
| 2026-05-05 11:14 | 54.40368 | 18.36023 | 2327 ft | 223 kts | 113° |
| 2026-05-05 11:14 | 54.39784 | 18.38560 | 1937 ft | 228 kts | 111° |
| 2026-05-05 11:14 | 54.39180 | 18.41096 | 1169 ft | 225 kts | 112° |
| 2026-05-05 11:14 | 54.38530 | 18.43434 | 753 ft | 209 kts | 113° |
| 2026-05-05 11:15 | 54.38006 | 18.45625 | 485 ft | 189 kts | 110° |
| 2026-05-05 11:15 | 54.37578 | 18.47300 | 460 ft | 74 kts | 223° |
| 2026-05-05 11:15 | 54.37537 | 18.47403 | 461 ft | 0 kts | 155° |